Time;durP1;ratioP1;P1;durP2;ratioP2;P2;SDS_P1;SDS_P2;PMS_P1;PMS_P2;Temp;Humidity;BMP_temperature;BMP_pressure;BME280_temperature;BME280_humidity;BME280_pressure;Samples;Min_cycle;Max_cycle;Signal;HPM_P1;HPM_P2
2023/01/18 00:00:05;;;;;;;480.37;232.50;;;;;;;;;;4908707;28;21795;-67
2023/01/18 00:02:31;;;;;;;390.97;179.73;;;;;;;;;;4903632;28;20223;-68
2023/01/18 00:04:57;;;;;;;415.87;188.63;;;;;;;;;;4910739;28;20234;-67
2023/01/18 00:07:23;;;;;;;330.53;150.10;;;;;;;;;;4916426;28;20180;-67
2023/01/18 00:09:49;;;;;;;380.93;173.67;;;;;;;;;;4909043;28;20227;-68
2023/01/18 00:12:14;;;;;;;366.77;163.43;;;;;;;;;;4912584;28;20220;-68
2023/01/18 00:14:40;;;;;;;372.23;169.47;;;;;;;;;;4908721;28;20265;-67
2023/01/18 00:17:06;;;;;;;406.97;183.33;;;;;;;;;;4904024;28;20218;-68
2023/01/18 00:19:32;;;;;;;409.10;187.33;;;;;;;;;;4906969;28;20203;-68
2023/01/18 00:21:58;;;;;;;444.00;202.63;;;;;;;;;;4901550;28;20722;-68
2023/01/18 00:24:26;;;;;;;387.63;175.43;;;;;;;;;;4901416;28;20230;-67
2023/01/18 00:26:52;;;;;;;427.67;198.43;;;;;;;;;;4913412;28;20278;-67
2023/01/18 00:29:18;;;;;;;397.53;181.00;;;;;;;;;;4899055;28;20253;-67
2023/01/18 00:31:44;;;;;;;415.47;183.67;;;;;;;;;;4908012;28;20770;-67
2023/01/18 00:34:10;;;;;;;374.80;174.23;;;;;;;;;;4907822;28;20666;-67
2023/01/18 00:36:36;;;;;;;360.03;171.60;;;;;;;;;;4912675;28;20230;-67
2023/01/18 00:39:02;;;;;;;425.40;198.20;;;;;;;;;;4909959;28;20254;-67
2023/01/18 00:41:28;;;;;;;367.87;166.37;;;;;;;;;;4906279;28;20321;-67
2023/01/18 00:43:54;;;;;;;435.70;206.97;;;;;;;;;;4903060;28;20692;-67
2023/01/18 00:46:26;;;;;;;392.70;180.50;;;;;;;;;;4902692;28;20195;-67
2023/01/18 00:48:52;;;;;;;348.23;158.93;;;;;;;;;;4906612;28;20261;-67
2023/01/18 00:51:19;;;;;;;376.30;176.27;;;;;;;;;;4905114;28;20727;-67
2023/01/18 00:53:46;;;;;;;426.37;198.13;;;;;;;;;;4899275;28;21063;-67
2023/01/18 00:56:13;;;;;;;433.53;203.20;;;;;;;;;;4982756;28;20224;-67
2023/01/18 00:58:39;;;;;;;395.40;187.27;;;;;;;;;;4900760;28;20250;-67
2023/01/18 01:01:06;;;;;;;422.47;198.50;;;;;;;;;;4903189;28;20213;-67
2023/01/18 01:06:42;;;;;;;380.63;172.80;;;;;;;;;;4906003;28;20315;-67
2023/01/18 01:09:05;;;;;;;385.30;169.60;;;;;;;;;;4912815;28;20370;-67
2023/01/18 01:11:31;;;;;;;339.40;152.93;;;;;;;;;;4909891;28;20315;-67
2023/01/18 01:27:43;;;;;;;420.80;193.63;;;;;;;;;;4906477;28;20250;-67
2023/01/18 01:30:09;;;;;;;442.87;211.47;;;;;;;;;;4899917;28;20662;-67
2023/01/18 01:32:35;;;;;;;373.90;175.63;;;;;;;;;;4900445;28;20649;-67
2023/01/18 01:35:01;;;;;;;427.93;198.27;;;;;;;;;;4904896;28;20358;-67
2023/01/18 01:37:27;;;;;;;325.70;148.10;;;;;;;;;;4905498;28;20195;-67
2023/01/18 01:39:53;;;;;;;411.57;184.03;;;;;;;;;;4907839;28;20547;-67
2023/01/18 01:42:19;;;;;;;371.17;169.13;;;;;;;;;;4904497;28;20212;-67
2023/01/18 01:44:48;;;;;;;348.50;166.50;;;;;;;;;;4903370;28;20506;-67
2023/01/18 01:47:24;;;;;;;337.60;153.07;;;;;;;;;;4904725;28;20219;-68
2023/01/18 01:49:55;;;;;;;407.47;183.70;;;;;;;;;;4912886;28;20976;-67
2023/01/18 01:52:22;;;;;;;427.87;195.57;;;;;;;;;;4906738;28;20225;-67
2023/01/18 01:54:53;;;;;;;363.87;165.87;;;;;;;;;;4906717;28;20216;-67
2023/01/18 01:57:27;;;;;;;407.73;188.57;;;;;;;;;;4918213;28;23740;-67
2023/01/18 02:00:00;;;;;;;413.60;189.17;;;;;;;;;;4904095;28;20242;-67
2023/01/18 02:02:27;;;;;;;432.30;198.00;;;;;;;;;;4908228;28;20220;-67
2023/01/18 02:04:54;;;;;;;368.07;166.50;;;;;;;;;;4915750;28;20188;-67
2023/01/18 02:07:27;;;;;;;353.30;163.37;;;;;;;;;;4910346;28;20180;-67
2023/01/18 02:09:54;;;;;;;369.37;175.13;;;;;;;;;;4923841;28;20293;-67
2023/01/18 02:12:19;;;;;;;384.80;182.80;;;;;;;;;;4906949;28;20219;-67
2023/01/18 02:14:46;;;;;;;342.33;156.17;;;;;;;;;;4906560;28;20222;-67
2023/01/18 02:17:37;;;;;;;338.17;152.27;;;;;;;;;;4908607;28;20285;-67
2023/01/18 02:20:22;;;;;;;314.23;143.53;;;;;;;;;;4909590;28;20314;-67
2023/01/18 02:23:02;;;;;;;362.33;172.67;;;;;;;;;;4899562;28;20191;-67
2023/01/18 02:25:46;;;;;;;376.57;171.77;;;;;;;;;;4910830;28;20279;-67
2023/01/18 02:28:15;;;;;;;330.77;157.83;;;;;;;;;;4904380;28;20273;-67
2023/01/18 02:30:45;;;;;;;426.03;192.27;;;;;;;;;;4909831;28;20224;-68
2023/01/18 02:33:28;;;;;;;333.27;154.70;;;;;;;;;;4912451;28;20224;-67
2023/01/18 02:35:59;;;;;;;385.80;178.00;;;;;;;;;;4908760;28;20223;-67
2023/01/18 02:38:37;;;;;;;349.87;163.77;;;;;;;;;;4909809;28;20266;-67
2023/01/18 02:41:09;;;;;;;311.83;146.50;;;;;;;;;;4915887;28;20220;-67
2023/01/18 02:46:34;;;;;;;420.43;185.27;;;;;;;;;;4905941;28;20258;-67
2023/01/18 02:49:06;;;;;;;355.70;161.37;;;;;;;;;;4908223;28;20214;-67
2023/01/18 02:51:32;;;;;;;403.17;188.60;;;;;;;;;;4896292;28;20311;-67
2023/01/18 02:53:59;;;;;;;418.73;195.00;;;;;;;;;;4906483;28;20320;-67
2023/01/18 02:56:28;;;;;;;406.87;186.10;;;;;;;;;;4905956;28;20216;-67
2023/01/18 02:58:57;;;;;;;323.80;152.23;;;;;;;;;;4905164;28;20219;-66
2023/01/18 03:01:36;;;;;;;377.63;175.00;;;;;;;;;;4899127;28;20223;-67
2023/01/18 03:04:22;;;;;;;376.80;176.37;;;;;;;;;;4906108;28;20654;-67
2023/01/18 03:06:50;;;;;;;375.83;165.97;;;;;;;;;;4904653;28;20222;-67
2023/01/18 03:09:18;;;;;;;364.03;172.67;;;;;;;;;;4908930;28;20760;-67
2023/01/18 03:11:56;;;;;;;364.70;161.27;;;;;;;;;;4905198;28;20937;-67
2023/01/18 03:14:33;;;;;;;371.27;159.80;;;;;;;;;;4905785;28;20842;-67
2023/01/18 03:17:01;;;;;;;397.30;185.10;;;;;;;;;;4906905;28;20221;-67
2023/01/18 03:23:36;;;;;;;347.73;165.90;;;;;;;;;;4908325;28;20234;-68
2023/01/18 03:25:07;;;;;;;395.93;185.27;;;;;;;;;;4900729;28;20261;-68
2023/01/18 03:35:49;;;;;;;349.27;163.20;;;;;;;;;;4907107;28;20722;-68
2023/01/18 03:38:15;;;;;;;403.13;180.57;;;;;;;;;;4907780;28;20592;-68
2023/01/18 03:40:41;;;;;;;347.90;165.83;;;;;;;;;;4910391;28;20208;-68
2023/01/18 03:43:15;;;;;;;383.17;185.23;;;;;;;;;;4907512;28;20191;-68
2023/01/18 03:45:42;;;;;;;375.80;178.33;;;;;;;;;;4902564;28;20226;-68
2023/01/18 03:48:09;;;;;;;413.50;193.77;;;;;;;;;;4908731;28;20699;-68
2023/01/18 03:50:44;;;;;;;392.77;179.83;;;;;;;;;;4909826;28;20743;-68
2023/01/18 03:53:13;;;;;;;334.40;156.43;;;;;;;;;;4906873;28;20207;-68
2023/01/18 03:55:51;;;;;;;328.13;153.20;;;;;;;;;;4904239;28;20188;-68
2023/01/18 03:58:20;;;;;;;367.00;175.67;;;;;;;;;;4904793;28;20750;-68
2023/01/18 04:00:46;;;;;;;425.60;198.23;;;;;;;;;;4903390;28;20226;-68
2023/01/18 04:03:12;;;;;;;322.90;154.03;;;;;;;;;;4907181;28;20304;-68
2023/01/18 04:05:38;;;;;;;441.13;213.77;;;;;;;;;;4903425;28;20211;-68
2023/01/18 04:08:04;;;;;;;339.47;152.73;;;;;;;;;;4906283;28;20223;-68
2023/01/18 04:10:30;;;;;;;393.50;177.83;;;;;;;;;;4908240;28;20219;-68
2023/01/18 04:12:56;;;;;;;395.90;189.63;;;;;;;;;;4907621;28;20592;-68
2023/01/18 04:15:26;;;;;;;384.57;177.67;;;;;;;;;;4913449;28;20224;-68
2023/01/18 04:17:54;;;;;;;324.87;166.90;;;;;;;;;;4907228;28;20239;-68
2023/01/18 04:20:20;;;;;;;343.23;166.77;;;;;;;;;;4906417;28;20915;-68
2023/01/18 04:22:53;;;;;;;362.97;175.43;;;;;;;;;;4908637;28;20242;-68
2023/01/18 04:25:19;;;;;;;410.27;212.57;;;;;;;;;;4908636;28;20202;-68
2023/01/18 04:27:46;;;;;;;330.17;161.97;;;;;;;;;;4905607;28;20235;-68
2023/01/18 04:30:12;;;;;;;364.03;178.63;;;;;;;;;;4899819;28;20230;-68
2023/01/18 04:32:41;;;;;;;319.03;150.70;;;;;;;;;;4907196;28;20219;-68
2023/01/18 04:35:08;;;;;;;396.60;189.67;;;;;;;;;;4900295;28;20730;-68
2023/01/18 04:37:36;;;;;;;366.87;165.17;;;;;;;;;;4904460;28;20332;-68
2023/01/18 04:40:02;;;;;;;315.10;147.07;;;;;;;;;;4910297;28;20212;-68
2023/01/18 04:42:29;;;;;;;332.97;162.13;;;;;;;;;;4911386;28;20227;-68
2023/01/18 04:44:55;;;;;;;272.53;127.97;;;;;;;;;;4910427;28;20285;-68
2023/01/18 04:47:21;;;;;;;354.73;165.40;;;;;;;;;;4907739;28;20231;-68
2023/01/18 04:49:47;;;;;;;374.30;174.63;;;;;;;;;;4901420;28;20545;-68
2023/01/18 04:52:13;;;;;;;338.37;161.83;;;;;;;;;;4907991;28;20191;-68
2023/01/18 04:54:39;;;;;;;317.40;141.70;;;;;;;;;;4906898;28;20221;-68
2023/01/18 04:57:05;;;;;;;332.47;151.43;;;;;;;;;;4909293;28;20285;-67
2023/01/18 04:59:31;;;;;;;348.90;166.73;;;;;;;;;;4905089;28;20744;-67
2023/01/18 05:01:57;;;;;;;308.60;145.00;;;;;;;;;;4900870;28;20227;-67
2023/01/18 05:04:23;;;;;;;320.57;148.47;;;;;;;;;;4905711;28;20195;-67
2023/01/18 05:06:49;;;;;;;326.83;150.83;;;;;;;;;;4908891;28;20223;-67
2023/01/18 05:09:15;;;;;;;325.23;141.53;;;;;;;;;;4923705;28;20250;-66
2023/01/18 05:11:42;;;;;;;279.97;131.70;;;;;;;;;;4901950;28;20235;-67
2023/01/18 05:14:09;;;;;;;329.27;157.30;;;;;;;;;;4920444;28;20224;-67
2023/01/18 05:16:35;;;;;;;327.50;143.90;;;;;;;;;;4905743;28;20231;-67
2023/01/18 05:19:04;;;;;;;265.17;124.03;;;;;;;;;;4904026;28;20670;-67
2023/01/18 05:21:30;;;;;;;287.47;136.17;;;;;;;;;;4902885;28;20224;-67
2023/01/18 05:23:56;;;;;;;272.77;126.63;;;;;;;;;;4903886;28;20801;-67
2023/01/18 05:26:25;;;;;;;272.97;126.37;;;;;;;;;;4904868;28;20223;-66
2023/01/18 05:28:55;;;;;;;278.50;128.90;;;;;;;;;;4904155;28;20195;-67
2023/01/18 05:31:22;;;;;;;314.30;143.40;;;;;;;;;;4904926;28;20212;-67
2023/01/18 05:33:48;;;;;;;365.43;169.90;;;;;;;;;;4901770;28;20698;-67
2023/01/18 05:36:14;;;;;;;304.00;144.43;;;;;;;;;;4907562;28;20393;-66
2023/01/18 05:38:40;;;;;;;331.07;152.53;;;;;;;;;;4911558;28;20276;-67
2023/01/18 05:41:06;;;;;;;378.67;171.33;;;;;;;;;;4907051;28;20242;-67
2023/01/18 05:43:32;;;;;;;397.00;174.47;;;;;;;;;;4906157;28;20184;-67
2023/01/18 05:45:58;;;;;;;339.77;153.10;;;;;;;;;;4913687;28;20688;-67
2023/01/18 05:48:24;;;;;;;327.57;149.07;;;;;;;;;;4913495;28;20263;-67
2023/01/18 05:50:50;;;;;;;271.17;122.07;;;;;;;;;;4912545;28;20270;-67
2023/01/18 05:53:18;;;;;;;290.40;134.57;;;;;;;;;;4919133;28;20764;-67
2023/01/18 05:55:44;;;;;;;366.40;166.33;;;;;;;;;;4906339;28;20624;-67
2023/01/18 05:58:10;;;;;;;324.53;151.63;;;;;;;;;;4908911;28;20283;-67
2023/01/18 06:00:36;;;;;;;359.70;159.57;;;;;;;;;;4902959;28;20307;-67
2023/01/18 06:03:02;;;;;;;279.73;126.87;;;;;;;;;;4910123;28;20258;-67
2023/01/18 06:05:28;;;;;;;281.37;133.33;;;;;;;;;;4907391;28;20425;-67
2023/01/18 06:07:55;;;;;;;275.50;126.80;;;;;;;;;;4906782;28;20816;-67
2023/01/18 06:10:21;;;;;;;415.37;196.27;;;;;;;;;;4906051;28;20257;-67
2023/01/18 06:12:46;;;;;;;347.83;163.77;;;;;;;;;;4910488;28;20208;-68
2023/01/18 06:15:14;;;;;;;357.33;162.53;;;;;;;;;;4909917;28;20219;-67
2023/01/18 06:17:43;;;;;;;364.30;162.67;;;;;;;;;;4904421;28;20266;-67
2023/01/18 06:20:11;;;;;;;325.63;159.20;;;;;;;;;;4908933;28;20224;-68
2023/01/18 06:22:40;;;;;;;455.53;224.00;;;;;;;;;;4889457;28;20219;-67
2023/01/18 06:25:07;;;;;;;333.37;148.73;;;;;;;;;;4898240;28;20623;-69
2023/01/18 06:27:33;;;;;;;300.47;138.70;;;;;;;;;;4910095;28;20324;-68
2023/01/18 06:29:59;;;;;;;361.17;172.03;;;;;;;;;;4910541;28;20753;-68
2023/01/18 06:32:28;;;;;;;452.20;217.40;;;;;;;;;;4895010;28;20353;-68
2023/01/18 06:35:00;;;;;;;311.00;149.67;;;;;;;;;;4916273;28;20508;-68
2023/01/18 06:37:27;;;;;;;364.20;167.63;;;;;;;;;;4906856;28;20179;-71
2023/01/18 06:39:56;;;;;;;299.20;136.47;;;;;;;;;;4900875;28;20236;-68
2023/01/18 06:42:22;;;;;;;279.60;140.37;;;;;;;;;;4906217;28;20864;-70
2023/01/18 06:44:54;;;;;;;278.03;132.73;;;;;;;;;;4908391;28;23373;-69
2023/01/18 06:47:24;;;;;;;325.33;157.37;;;;;;;;;;4920584;28;20271;-69
2023/01/18 06:49:50;;;;;;;411.27;200.17;;;;;;;;;;4918123;28;20239;-70
2023/01/18 06:52:18;;;;;;;304.47;141.40;;;;;;;;;;4904739;28;20188;-77
2023/01/18 06:54:47;;;;;;;383.80;172.27;;;;;;;;;;4903946;28;20290;-76
2023/01/18 06:57:14;;;;;;;310.93;151.87;;;;;;;;;;4908539;28;20330;-77
2023/01/18 06:59:52;;;;;;;421.40;212.27;;;;;;;;;;4903308;28;20314;-78
2023/01/18 07:02:19;;;;;;;364.57;173.23;;;;;;;;;;4901802;28;20784;-77
2023/01/18 07:05:04;;;;;;;329.73;159.37;;;;;;;;;;4909597;28;20202;-78
2023/01/18 07:07:30;;;;;;;254.93;124.03;;;;;;;;;;4911201;28;20502;-76
2023/01/18 07:10:00;;;;;;;370.80;174.87;;;;;;;;;;4903742;28;20944;-72
2023/01/18 07:12:26;;;;;;;446.63;227.67;;;;;;;;;;4884658;28;20633;-71
2023/01/18 07:14:52;;;;;;;378.40;179.03;;;;;;;;;;4901461;28;20216;-72
2023/01/18 07:17:24;;;;;;;408.70;187.93;;;;;;;;;;4901512;28;20674;-73
2023/01/18 07:19:53;;;;;;;340.63;169.30;;;;;;;;;;4903786;28;20228;-73
2023/01/18 07:22:23;;;;;;;339.67;160.37;;;;;;;;;;4914086;28;20203;-73
2023/01/18 07:24:49;;;;;;;384.73;172.70;;;;;;;;;;4906631;28;21302;-66
2023/01/18 07:27:25;;;;;;;456.93;221.53;;;;;;;;;;4896298;28;20249;-65
2023/01/18 07:29:54;;;;;;;437.87;215.47;;;;;;;;;;4901501;28;20235;-63
2023/01/18 07:32:41;;;;;;;398.63;188.80;;;;;;;;;;4905306;28;20962;-72
2023/01/18 07:35:07;;;;;;;470.70;230.80;;;;;;;;;;4895640;28;20226;-70
2023/01/18 07:37:34;;;;;;;418.60;196.57;;;;;;;;;;4903307;28;20267;-69
2023/01/18 07:40:14;;;;;;;426.80;197.73;;;;;;;;;;4887670;28;21192;-71
2023/01/18 07:42:40;;;;;;;472.63;221.70;;;;;;;;;;4889613;28;20298;-70
2023/01/18 07:45:08;;;;;;;460.47;216.47;;;;;;;;;;4901345;28;20367;-70
2023/01/18 07:47:38;;;;;;;416.20;191.60;;;;;;;;;;4904980;28;20192;-69
2023/01/18 07:50:08;;;;;;;431.63;209.13;;;;;;;;;;4896989;28;20314;-70
2023/01/18 07:52:37;;;;;;;428.60;197.10;;;;;;;;;;4894859;28;20715;-70
2023/01/18 07:55:03;;;;;;;427.80;194.00;;;;;;;;;;4899349;28;20295;-71
2023/01/18 07:57:30;;;;;;;393.73;179.43;;;;;;;;;;4894136;28;20230;-69
2023/01/18 07:59:56;;;;;;;353.37;160.70;;;;;;;;;;4905475;28;20317;-70
2023/01/18 08:02:31;;;;;;;348.50;155.57;;;;;;;;;;4914199;28;20387;-70
2023/01/18 08:05:03;;;;;;;365.97;173.60;;;;;;;;;;4916926;28;20207;-70
2023/01/18 08:07:37;;;;;;;380.57;175.37;;;;;;;;;;4911979;28;20252;-70
2023/01/18 08:10:06;;;;;;;390.23;169.47;;;;;;;;;;4906654;28;20223;-70
2023/01/18 08:12:32;;;;;;;363.63;163.23;;;;;;;;;;4910952;28;20228;-69
2023/01/18 08:15:03;;;;;;;368.63;164.63;;;;;;;;;;4906137;28;20242;-70
2023/01/18 08:17:38;;;;;;;366.10;160.43;;;;;;;;;;4914690;28;20588;-70
2023/01/18 08:20:08;;;;;;;367.40;159.60;;;;;;;;;;4910283;28;20276;-70
2023/01/18 08:22:37;;;;;;;356.43;162.30;;;;;;;;;;4907878;28;20297;-70
2023/01/18 08:25:16;;;;;;;338.37;154.50;;;;;;;;;;4910104;28;20744;-70
2023/01/18 08:27:45;;;;;;;354.00;162.87;;;;;;;;;;4895712;28;20314;-69
2023/01/18 08:30:11;;;;;;;380.10;169.47;;;;;;;;;;4913902;28;20212;-70
2023/01/18 08:32:43;;;;;;;357.83;176.93;;;;;;;;;;4910941;28;20225;-70
2023/01/18 08:35:09;;;;;;;346.13;156.13;;;;;;;;;;4918083;28;20596;-70
2023/01/18 08:37:37;;;;;;;344.23;161.07;;;;;;;;;;4914018;28;20325;-70
2023/01/18 08:40:04;;;;;;;407.20;199.00;;;;;;;;;;4902187;28;20711;-70
2023/01/18 08:42:29;;;;;;;306.27;149.43;;;;;;;;;;4905536;28;20247;-70
2023/01/18 08:44:56;;;;;;;414.33;202.40;;;;;;;;;;4906675;28;20602;-69
2023/01/18 08:47:22;;;;;;;356.53;167.27;;;;;;;;;;4911084;28;20602;-70
2023/01/18 08:49:48;;;;;;;396.90;188.83;;;;;;;;;;4912608;28;20220;-70
2023/01/18 08:52:18;;;;;;;411.10;196.63;;;;;;;;;;4900052;28;20638;-70
2023/01/18 08:54:44;;;;;;;423.03;203.23;;;;;;;;;;4902404;28;20294;-71
2023/01/18 08:57:13;;;;;;;413.33;194.03;;;;;;;;;;4896871;28;20269;-69
2023/01/18 08:59:42;;;;;;;421.20;207.10;;;;;;;;;;4901886;28;20297;-71
2023/01/18 09:02:11;;;;;;;446.60;218.87;;;;;;;;;;4895563;28;20281;-71
2023/01/18 09:04:37;;;;;;;383.53;178.73;;;;;;;;;;4899476;28;20227;-71
2023/01/18 09:07:06;;;;;;;375.87;175.20;;;;;;;;;;4915070;28;20321;-71
2023/01/18 09:09:32;;;;;;;372.63;179.27;;;;;;;;;;4910510;28;20215;-70
2023/01/18 09:11:58;;;;;;;405.23;187.43;;;;;;;;;;4916233;28;20343;-70
2023/01/18 09:14:30;;;;;;;424.60;206.80;;;;;;;;;;4910137;28;20199;-70
2023/01/18 09:17:01;;;;;;;395.20;199.03;;;;;;;;;;4907196;28;20267;-70
2023/01/18 09:19:27;;;;;;;399.43;195.17;;;;;;;;;;4916133;28;20274;-70
2023/01/18 09:21:56;;;;;;;428.40;211.07;;;;;;;;;;4906639;28;20227;-70
2023/01/18 09:24:31;;;;;;;412.00;200.23;;;;;;;;;;4900591;28;20227;-70
2023/01/18 09:27:00;;;;;;;359.67;183.27;;;;;;;;;;4911414;28;20223;-70
2023/01/18 09:29:29;;;;;;;422.63;197.83;;;;;;;;;;4910703;28;20196;-69
2023/01/18 09:32:01;;;;;;;335.97;165.80;;;;;;;;;;4912177;28;20274;-71
2023/01/18 09:34:27;;;;;;;397.50;205.70;;;;;;;;;;4901985;28;20282;-70
2023/01/18 09:36:53;;;;;;;538.40;279.67;;;;;;;;;;4900424;28;21197;-70
2023/01/18 09:39:22;;;;;;;431.20;196.07;;;;;;;;;;4904609;28;20253;-69
2023/01/18 09:41:52;;;;;;;332.47;168.77;;;;;;;;;;4913566;28;20281;-70
2023/01/18 09:44:30;;;;;;;391.27;195.03;;;;;;;;;;4907961;28;20272;-73
2023/01/18 09:46:58;;;;;;;374.43;184.67;;;;;;;;;;4910207;28;20322;-71
2023/01/18 09:49:36;;;;;;;384.03;180.87;;;;;;;;;;4911448;28;20219;-72
2023/01/18 09:52:22;;;;;;;383.97;174.40;;;;;;;;;;4911533;28;20211;-70
2023/01/18 09:54:48;;;;;;;378.40;178.33;;;;;;;;;;4910630;28;20315;-70
2023/01/18 09:57:21;;;;;;;347.67;163.27;;;;;;;;;;4907894;28;20700;-71
2023/01/18 09:59:54;;;;;;;454.13;218.30;;;;;;;;;;4907417;28;20702;-70
2023/01/18 10:02:25;;;;;;;400.77;194.07;;;;;;;;;;4897385;28;20255;-70
2023/01/18 10:04:58;;;;;;;384.37;177.17;;;;;;;;;;4906455;28;20788;-69
2023/01/18 10:07:26;;;;;;;359.63;169.03;;;;;;;;;;4894834;28;20227;-71
2023/01/18 10:09:58;;;;;;;539.17;295.17;;;;;;;;;;4888585;28;20788;-70
2023/01/18 10:12:24;;;;;;;412.53;199.03;;;;;;;;;;4882868;28;20289;-70
2023/01/18 10:15:09;;;;;;;398.70;162.93;;;;;;;;;;4902707;28;20712;-70
2023/01/18 10:17:37;;;;;;;400.60;166.70;;;;;;;;;;4907630;28;20200;-69
2023/01/18 10:20:13;;;;;;;362.97;153.07;;;;;;;;;;4896668;28;20550;-70
2023/01/18 10:22:51;;;;;;;409.27;165.93;;;;;;;;;;4903586;28;20212;-69
2023/01/18 10:25:26;;;;;;;416.10;172.33;;;;;;;;;;4911513;28;20218;-69
2023/01/18 10:27:52;;;;;;;397.73;171.00;;;;;;;;;;4908018;28;20323;-70
2023/01/18 10:30:29;;;;;;;422.77;173.13;;;;;;;;;;4900285;28;20369;-69
2023/01/18 10:33:00;;;;;;;372.67;147.80;;;;;;;;;;4911093;28;20684;-69
2023/01/18 10:35:32;;;;;;;380.73;152.80;;;;;;;;;;4901628;28;20646;-69
2023/01/18 10:38:00;;;;;;;392.93;153.53;;;;;;;;;;4904554;28;20199;-70
2023/01/18 10:40:26;;;;;;;434.87;182.40;;;;;;;;;;4906845;28;20216;-70
2023/01/18 10:42:55;;;;;;;413.20;161.43;;;;;;;;;;4911729;28;20208;-70
2023/01/18 10:45:23;;;;;;;378.27;152.70;;;;;;;;;;4897297;28;20267;-70
2023/01/18 10:47:50;;;;;;;437.37;176.17;;;;;;;;;;4911790;28;20243;-70
2023/01/18 10:50:21;;;;;;;373.00;155.40;;;;;;;;;;4906847;28;20717;-70
2023/01/18 10:52:48;;;;;;;470.57;205.67;;;;;;;;;;4898776;28;20219;-70
2023/01/18 10:55:20;;;;;;;407.53;170.60;;;;;;;;;;4894916;28;20218;-70
2023/01/18 10:57:48;;;;;;;438.53;189.60;;;;;;;;;;4895601;28;20219;-75
2023/01/18 11:00:22;;;;;;;442.77;201.17;;;;;;;;;;4887168;28;20257;-72
2023/01/18 11:02:53;;;;;;;375.33;174.73;;;;;;;;;;4900775;28;20239;-71
2023/01/18 11:05:37;;;;;;;365.70;173.73;;;;;;;;;;4905114;28;20274;-72
2023/01/18 11:08:10;;;;;;;368.80;170.83;;;;;;;;;;4910763;28;21689;-73
2023/01/18 11:10:37;;;;;;;351.90;163.23;;;;;;;;;;4905541;28;20227;-70
2023/01/18 11:13:03;;;;;;;242.10;119.20;;;;;;;;;;4904453;28;20274;-72
2023/01/18 11:15:30;;;;;;;356.20;159.90;;;;;;;;;;4900131;28;20618;-69
2023/01/18 11:17:56;;;;;;;342.30;160.87;;;;;;;;;;4897004;28;20231;-68
2023/01/18 11:20:24;;;;;;;404.43;189.50;;;;;;;;;;4903796;28;20687;-69
2023/01/18 11:23:00;;;;;;;406.73;191.67;;;;;;;;;;4893388;28;20216;-70
2023/01/18 11:25:34;;;;;;;334.53;153.73;;;;;;;;;;4914688;28;20842;-70
2023/01/18 11:28:00;;;;;;;333.87;155.90;;;;;;;;;;4905426;28;20656;-68
2023/01/18 11:30:26;;;;;;;400.43;185.33;;;;;;;;;;4904576;28;20275;-70
2023/01/18 11:32:53;;;;;;;333.30;155.30;;;;;;;;;;4903979;28;20223;-68
2023/01/18 11:35:37;;;;;;;394.83;178.60;;;;;;;;;;4906745;28;20194;-69
2023/01/18 11:38:09;;;;;;;398.87;188.07;;;;;;;;;;4900777;28;20242;-68
2023/01/18 11:40:35;;;;;;;386.40;176.97;;;;;;;;;;4898219;28;20220;-69
2023/01/18 11:43:38;;;;;;;424.47;201.37;;;;;;;;;;4898103;28;20223;-71
2023/01/18 11:46:09;;;;;;;397.43;193.33;;;;;;;;;;4902833;28;20219;-71
2023/01/18 11:48:41;;;;;;;351.67;166.17;;;;;;;;;;4900217;28;20331;-70
2023/01/18 11:51:26;;;;;;;436.60;201.17;;;;;;;;;;4894957;28;20424;-71
2023/01/18 11:53:57;;;;;;;339.67;165.40;;;;;;;;;;4903696;28;20227;-70
2023/01/18 11:56:39;;;;;;;329.53;152.00;;;;;;;;;;4923115;28;21950;-71
2023/01/18 11:59:12;;;;;;;314.23;145.63;;;;;;;;;;4894578;28;20231;-71
2023/01/18 12:01:58;;;;;;;385.73;193.23;;;;;;;;;;4902061;28;20227;-71
2023/01/18 12:04:42;;;;;;;418.27;185.60;;;;;;;;;;4931166;28;20284;-71
2023/01/18 12:07:23;;;;;;;250.37;119.67;;;;;;;;;;4900821;28;20211;-70
2023/01/18 12:09:54;;;;;;;470.23;222.13;;;;;;;;;;4894457;28;20226;-71
2023/01/18 12:12:27;;;;;;;285.27;127.43;;;;;;;;;;4905149;28;20218;-70
2023/01/18 12:14:56;;;;;;;339.13;165.10;;;;;;;;;;4907008;28;20697;-71
2023/01/18 12:17:35;;;;;;;351.33;175.37;;;;;;;;;;4901271;28;20214;-71
2023/01/18 12:20:08;;;;;;;452.87;203.80;;;;;;;;;;4899509;28;20338;-70
2023/01/18 12:22:50;;;;;;;416.23;192.37;;;;;;;;;;4900892;28;20228;-71
2023/01/18 12:25:28;;;;;;;370.90;183.03;;;;;;;;;;4895464;28;20284;-72
2023/01/18 12:28:06;;;;;;;399.30;177.07;;;;;;;;;;4898667;28;20223;-71
2023/01/18 12:30:43;;;;;;;332.10;149.50;;;;;;;;;;4905049;28;20212;-71
2023/01/18 12:33:12;;;;;;;286.33;130.07;;;;;;;;;;4896212;28;20408;-70
2023/01/18 12:35:39;;;;;;;303.30;137.73;;;;;;;;;;4901301;28;20314;-70
2023/01/18 12:38:08;;;;;;;402.60;194.97;;;;;;;;;;4905868;28;20192;-71
2023/01/18 12:40:47;;;;;;;328.63;161.97;;;;;;;;;;4906187;28;20315;-69
2023/01/18 12:43:31;;;;;;;389.23;194.47;;;;;;;;;;4905370;28;20366;-70
2023/01/18 12:46:02;;;;;;;319.47;150.63;;;;;;;;;;4905255;28;20281;-70
2023/01/18 12:48:30;;;;;;;326.80;158.07;;;;;;;;;;4914826;28;20369;-70
2023/01/18 12:50:57;;;;;;;380.67;179.37;;;;;;;;;;4901929;28;20223;-69
2023/01/18 12:53:40;;;;;;;398.63;198.20;;;;;;;;;;4911658;28;20191;-69
2023/01/18 12:56:31;;;;;;;347.17;175.63;;;;;;;;;;4906869;28;20223;-70
2023/01/18 12:58:59;;;;;;;394.07;181.77;;;;;;;;;;4904137;28;20231;-70
2023/01/18 13:01:26;;;;;;;380.57;176.87;;;;;;;;;;4909671;28;20224;-70
2023/01/18 13:03:57;;;;;;;406.27;195.13;;;;;;;;;;4911928;28;20311;-70
2023/01/18 13:06:24;;;;;;;339.90;163.83;;;;;;;;;;4902795;28;20576;-71
2023/01/18 13:09:00;;;;;;;364.07;160.87;;;;;;;;;;4908173;28;20275;-71
2023/01/18 13:11:29;;;;;;;343.63;165.17;;;;;;;;;;4912838;28;20308;-70
2023/01/18 13:14:16;;;;;;;282.00;133.57;;;;;;;;;;4906756;28;20230;-70
2023/01/18 13:17:01;;;;;;;345.53;166.17;;;;;;;;;;4889952;28;20215;-70
2023/01/18 13:19:38;;;;;;;393.90;196.00;;;;;;;;;;4903281;28;20224;-72
2023/01/18 13:22:23;;;;;;;417.63;205.37;;;;;;;;;;4903229;28;20221;-69
2023/01/18 13:24:55;;;;;;;303.73;148.37;;;;;;;;;;4902157;28;20220;-70
2023/01/18 13:27:26;;;;;;;383.63;193.80;;;;;;;;;;4897825;28;20720;-71
2023/01/18 13:29:52;;;;;;;390.57;186.00;;;;;;;;;;4902341;28;20230;-69
2023/01/18 13:32:27;;;;;;;295.80;144.70;;;;;;;;;;4906049;28;20233;-70
2023/01/18 13:35:00;;;;;;;368.90;181.13;;;;;;;;;;4904300;28;21607;-69
2023/01/18 13:37:40;;;;;;;333.70;161.90;;;;;;;;;;4901750;28;20274;-69
2023/01/18 13:40:22;;;;;;;357.97;181.17;;;;;;;;;;4903695;28;20241;-70
2023/01/18 13:42:56;;;;;;;402.33;214.33;;;;;;;;;;4895628;28;20233;-72
2023/01/18 13:45:29;;;;;;;335.03;177.23;;;;;;;;;;4897522;28;20233;-70
2023/01/18 13:47:59;;;;;;;291.10;148.70;;;;;;;;;;4900081;28;20303;-70
2023/01/18 13:50:38;;;;;;;311.90;156.13;;;;;;;;;;4900842;28;20204;-70
2023/01/18 13:53:13;;;;;;;329.87;166.43;;;;;;;;;;4907332;28;20220;-70
2023/01/18 13:55:40;;;;;;;301.10;154.73;;;;;;;;;;4907899;28;20226;-70
2023/01/18 13:58:24;;;;;;;361.17;179.33;;;;;;;;;;4901753;28;20307;-70
2023/01/18 14:00:50;;;;;;;359.53;180.30;;;;;;;;;;4895096;28;21356;-71
2023/01/18 14:03:21;;;;;;;354.20;171.20;;;;;;;;;;4926283;28;20215;-70
2023/01/18 14:05:48;;;;;;;322.30;164.63;;;;;;;;;;4906523;28;20311;-71
2023/01/18 14:08:21;;;;;;;321.10;160.83;;;;;;;;;;4901136;28;20220;-71
2023/01/18 14:10:49;;;;;;;341.77;175.20;;;;;;;;;;4912131;28;20227;-71
2023/01/18 14:13:16;;;;;;;374.73;182.30;;;;;;;;;;4910815;28;20614;-72
2023/01/18 14:15:42;;;;;;;296.30;153.33;;;;;;;;;;4908426;28;20327;-70
2023/01/18 14:18:28;;;;;;;356.20;181.00;;;;;;;;;;4910872;28;20220;-70
2023/01/18 14:21:05;;;;;;;333.37;162.93;;;;;;;;;;4912458;28;20227;-68
2023/01/18 14:23:51;;;;;;;370.83;181.13;;;;;;;;;;4908668;28;20233;-71
2023/01/18 14:26:18;;;;;;;362.97;176.73;;;;;;;;;;4908859;28;20207;-71
2023/01/18 14:28:44;;;;;;;315.60;149.30;;;;;;;;;;4914448;28;20314;-71
2023/01/18 14:31:18;;;;;;;344.87;173.00;;;;;;;;;;4901483;28;20216;-71
2023/01/18 14:33:44;;;;;;;406.33;195.10;;;;;;;;;;4911033;28;20955;-71
2023/01/18 14:36:24;;;;;;;339.40;159.43;;;;;;;;;;4908516;28;21591;-72
2023/01/18 14:39:11;;;;;;;332.77;160.73;;;;;;;;;;4909439;28;20242;-71